Time;durP1;ratioP1;P1;durP2;ratioP2;P2;SDS_P1;SDS_P2;PMS_P1;PMS_P2;Temp;Humidity;BMP_temperature;BMP_pressure;BME280_temperature;BME280_humidity;BME280_pressure;Samples;Min_cycle;Max_cycle;Signal;HPM_P1;HPM_P2
2021/11/14 00:08:27;;;;;;;114.08;40.10;;;;;;;7.47;100.00;100797.44;713869;1200;114149;-75
2021/11/14 00:23:29;;;;;;;72.58;33.23;;;;;;;7.48;100.00;100811.31;714080;1199;115681;-75
2021/11/14 00:38:31;;;;;;;92.60;38.93;;;;;;;7.57;100.00;100810.70;714088;1199;113854;-75
2021/11/14 00:53:33;;;;;;;68.63;30.83;;;;;;;7.55;100.00;100807.37;714095;1199;114411;-75
2021/11/14 01:08:36;;;;;;;120.03;45.08;;;;;;;7.68;100.00;100817.83;714077;1200;114760;-74
2021/11/14 01:23:40;;;;;;;67.28;28.55;;;;;;;7.57;100.00;100820.31;714295;1199;114572;-75
2021/11/14 01:38:42;;;;;;;75.23;31.73;;;;;;;7.57;100.00;100833.37;714260;1174;113916;-75
2021/11/14 01:53:45;;;;;;;67.40;29.93;;;;;;;7.63;100.00;100830.36;714293;1179;114466;-75
2021/11/14 02:08:47;;;;;;;64.70;28.63;;;;;;;7.63;100.00;100846.84;714351;1174;114862;-75
2021/11/14 02:23:51;;;;;;;70.20;27.53;;;;;;;7.71;100.00;100850.70;714279;1198;114130;-75
2021/11/14 02:38:54;;;;;;;61.68;26.83;;;;;;;7.72;100.00;100849.77;713982;1176;114299;-76
2021/11/14 02:53:57;;;;;;;63.60;27.18;;;;;;;7.62;100.00;100857.41;714547;1183;114109;-75
2021/11/14 03:08:59;;;;;;;69.67;28.43;;;;;;;7.33;100.00;100883.64;714484;1177;114595;-76
2021/11/14 03:24:01;;;;;;;68.68;28.75;;;;;;;7.40;100.00;100879.69;714223;1182;113976;-76
2021/11/14 03:39:06;;;;;;;71.33;28.53;;;;;;;7.46;100.00;100892.34;713995;1174;114008;-75
2021/11/14 03:54:08;;;;;;;81.73;32.10;;;;;;;7.52;100.00;100892.88;714494;1174;113815;-75
2021/11/14 04:09:11;;;;;;;77.43;29.97;;;;;;;7.51;100.00;100912.95;714104;1202;114746;-75
2021/11/14 04:24:13;;;;;;;74.08;31.53;;;;;;;7.56;100.00;100910.88;714199;1200;114019;-75
2021/11/14 04:39:16;;;;;;;66.13;28.55;;;;;;;7.59;100.00;100928.94;714177;1200;114711;-75
2021/11/14 04:54:19;;;;;;;61.65;30.13;;;;;;;7.74;100.00;100940.15;714470;1199;114391;-75
2021/11/14 05:09:22;;;;;;;61.95;26.43;;;;;;;7.73;100.00;100935.86;714149;1202;114065;-76
2021/11/14 05:24:25;;;;;;;60.70;26.70;;;;;;;7.71;100.00;100950.81;714173;1202;114460;-75
2021/11/14 05:39:28;;;;;;;67.78;27.75;;;;;;;7.77;100.00;100970.45;714052;1190;113838;-75
2021/11/14 05:54:31;;;;;;;64.45;29.68;;;;;;;7.66;100.00;100997.28;714246;1184;113985;-76
2021/11/14 06:09:33;;;;;;;55.18;24.58;;;;;;;7.62;100.00;101022.74;714268;1202;115392;-75
2021/11/14 06:24:35;;;;;;;60.80;25.93;;;;;;;7.55;100.00;101044.97;713919;1202;113988;-75
2021/11/14 06:39:41;;;;;;;65.58;28.23;;;;;;;7.59;100.00;101079.57;714509;1200;114147;-76
2021/11/14 06:54:43;;;;;;;53.18;25.15;;;;;;;7.71;100.00;101104.91;714205;1202;114841;-75
2021/11/14 07:09:50;;;;;;;59.15;26.33;;;;;;;7.68;100.00;101126.00;713864;1202;113979;-76
2021/11/14 07:24:52;;;;;;;68.55;31.03;;;;;;;7.87;100.00;101140.52;714562;1199;114016;-76
2021/11/14 07:39:55;;;;;;;147.00;53.60;;;;;;;7.77;100.00;101146.32;714495;1199;113928;-76
2021/11/14 07:54:58;;;;;;;168.88;60.98;;;;;;;7.83;100.00;101155.54;714552;1174;114704;-77
2021/11/14 08:10:01;;;;;;;99.50;45.43;;;;;;;7.77;100.00;101161.13;714410;1199;114649;-72
2021/11/14 08:25:05;;;;;;;112.17;43.57;;;;;;;7.84;100.00;101175.51;714856;1200;113889;-72
2021/11/14 08:40:09;;;;;;;656.93;277.33;;;;;;;7.85;100.00;101185.00;714826;1199;115656;-71
2021/11/14 08:55:17;;;;;;;98.60;45.93;;;;;;;7.83;100.00;101207.78;714641;1199;114784;-77
2021/11/14 09:10:20;;;;;;;69.65;30.80;;;;;;;7.87;100.00;101229.34;714835;1199;114170;-73
2021/11/14 09:25:22;;;;;;;170.85;61.35;;;;;;;8.03;100.00;101229.23;715103;1185;114025;-73
2021/11/14 09:40:25;;;;;;;79.13;32.58;;;;;;;8.07;100.00;101228.09;714795;1177;114094;-71
2021/11/14 09:55:33;;;;;;;220.05;77.75;;;;;;;8.10;100.00;101225.28;714342;1202;115771;-72
2021/11/14 10:10:44;;;;;;;;;;;;;;;8.17;100.00;101242.27;715452;1174;114146;-71
2021/11/14 10:25:52;;;;;;;59.05;28.23;;;;;;;8.12;100.00;101254.78;715464;1199;100829;-72
2021/11/14 10:41:00;;;;;;;64.43;30.35;;;;;;;8.18;100.00;101267.45;714310;1186;113816;-72
2021/11/14 10:56:09;;;;;;;69.65;33.25;;;;;;;8.07;100.00;101278.58;714615;1174;113995;-72
2021/11/14 11:11:12;;;;;;;137.75;56.05;;;;;;;8.23;100.00;101285.48;715690;1202;114102;-72
2021/11/14 11:26:20;;;;;;;321.75;136.48;;;;;;;8.05;100.00;101303.98;715960;1199;114289;-73
2021/11/14 11:41:23;;;;;;;95.78;41.80;;;;;;;8.04;100.00;101322.34;715516;1199;113847;-74
2021/11/14 11:56:45;;;;;;;102.13;41.13;;;;;;;8.08;100.00;101342.98;715642;1176;114430;-74
2021/11/14 12:11:49;;;;;;;85.70;37.85;;;;;;;8.00;100.00;101343.45;716302;1200;114812;-73
2021/11/14 12:26:51;;;;;;;72.38;33.65;;;;;;;8.15;100.00;101359.97;715306;1202;113944;-75
2021/11/14 12:42:03;;;;;;;79.75;36.78;;;;;;;7.87;100.00;101362.59;716442;1199;115247;-72
2021/11/14 12:57:10;;;;;;;61.25;28.10;;;;;;;7.95;100.00;101383.86;721152;1178;114018;-75
2021/11/14 13:12:19;;;;;;;62.50;26.27;;;;;;;7.87;100.00;101393.94;717045;1199;114261;-74
2021/11/14 13:27:21;;;;;;;66.75;28.15;;;;;;;7.80;100.00;101403.91;715097;1202;115264;-74
2021/11/14 13:42:39;;;;;;;193.63;78.40;;;;;;;7.79;100.00;101410.89;714918;1199;114985;-74
2021/11/14 13:57:44;;;;;;;87.25;41.05;;;;;;;7.68;100.00;101442.03;714574;1200;114399;-74
2021/11/14 14:12:53;;;;;;;89.98;38.95;;;;;;;7.78;100.00;101458.83;715303;1199;115178;-74
2021/11/14 14:28:20;;;;;;;136.73;56.98;;;;;;;7.57;100.00;101478.34;715072;1200;114240;-75
2021/11/14 14:43:28;;;;;;;102.65;46.48;;;;;;;7.53;100.00;101488.12;714414;1199;115488;-75
2021/11/14 14:58:32;;;;;;;202.75;77.23;;;;;;;7.68;100.00;101488.19;714283;1199;113970;-75
2021/11/14 15:13:35;;;;;;;90.20;41.77;;;;;;;7.58;100.00;101521.83;714546;1175;114575;-74
2021/11/14 15:28:40;;;;;;;146.48;61.43;;;;;;;7.48;100.00;101534.53;714494;1200;113648;-75
2021/11/14 15:43:43;;;;;;;145.73;52.78;;;;;;;7.47;100.00;101551.15;714234;1177;114096;-75
2021/11/14 15:58:45;;;;;;;86.67;34.87;;;;;;;7.52;100.00;101577.82;714156;1188;114175;-75
2021/11/14 16:14:01;;;;;;;119.88;49.80;;;;;;;7.50;100.00;101587.53;715235;1174;114641;-74
2021/11/14 16:29:05;;;;;;;103.88;40.35;;;;;;;7.41;100.00;101604.52;715011;1177;114464;-75
2021/11/14 16:44:09;;;;;;;90.40;40.60;;;;;;;7.26;100.00;101611.41;715608;1177;115172;-72
2021/11/14 16:59:12;;;;;;;76.75;31.00;;;;;;;7.23;100.00;101626.39;714817;1177;113987;-74
2021/11/14 17:14:15;;;;;;;77.33;32.33;;;;;;;7.25;100.00;101638.44;714520;1203;114146;-72
2021/11/14 17:29:19;;;;;;;141.10;50.23;;;;;;;7.30;100.00;101659.92;715040;1202;114319;-74
2021/11/14 17:44:22;;;;;;;94.63;38.25;;;;;;;7.09;100.00;101667.10;715785;1199;115357;-73
2021/11/14 17:59:26;;;;;;;54.00;25.13;;;;;;;7.00;100.00;101693.66;715303;1199;115068;-73
2021/11/14 18:14:28;;;;;;;55.57;25.33;;;;;;;7.00;100.00;101715.37;715260;1202;115057;-73
2021/11/14 18:29:36;;;;;;;85.65;31.50;;;;;;;6.94;100.00;101730.49;715172;1188;113838;-74
2021/11/14 18:44:38;;;;;;;66.57;30.20;;;;;;;7.00;100.00;101740.63;715179;1174;114001;-74
2021/11/14 18:59:41;;;;;;;64.88;29.73;;;;;;;6.91;100.00;101767.17;715073;1177;113692;-75
2021/11/14 19:14:45;;;;;;;62.53;27.40;;;;;;;6.79;100.00;101794.70;715589;1174;113655;-74
2021/11/14 19:29:48;;;;;;;76.35;38.05;;;;;;;6.82;100.00;101808.45;715142;1202;114075;-74
2021/11/14 19:44:51;;;;;;;47.93;23.83;;;;;;;6.83;100.00;101828.38;715289;1202;115550;-73
2021/11/14 19:59:55;;;;;;;54.28;27.08;;;;;;;6.86;100.00;101842.20;715220;1192;113766;-73
2021/11/14 20:14:58;;;;;;;69.80;28.13;;;;;;;6.98;100.00;101857.27;715716;1176;113697;-74
2021/11/14 20:30:00;;;;;;;50.53;22.53;;;;;;;6.88;100.00;101867.31;714701;1177;113808;-74
2021/11/14 20:45:08;;;;;;;47.93;22.73;;;;;;;6.93;100.00;101864.50;715048;1202;116465;-74
2021/11/14 21:00:13;;;;;;;62.28;29.38;;;;;;;6.87;100.00;101880.43;716161;1200;114024;-74
2021/11/14 21:15:16;;;;;;;44.78;18.88;;;;;;;6.86;100.00;101894.38;715019;1193;113966;-73
2021/11/14 21:30:19;;;;;;;37.05;17.88;;;;;;;6.80;100.00;101905.95;715850;1177;113539;-73
2021/11/14 21:45:23;;;;;;;32.27;15.03;;;;;;;6.75;100.00;101926.19;715762;1200;114004;-73
2021/11/14 22:00:28;;;;;;;30.33;15.40;;;;;;;6.71;100.00;101922.87;714894;1199;114771;-73
2021/11/14 22:15:30;;;;;;;32.95;16.45;;;;;;;6.75;100.00;101929.63;715119;1202;114086;-74
2021/11/14 22:30:33;;;;;;;25.40;13.07;;;;;;;6.73;100.00;101941.05;715365;1174;113825;-74
2021/11/14 22:45:43;;;;;;;24.53;12.10;;;;;;;6.78;100.00;101947.77;714593;1199;115376;-74
2021/11/14 23:00:57;;;;;;;21.17;10.30;;;;;;;6.81;100.00;101945.02;714666;1178;113929;-74
2021/11/14 23:16:00;;;;;;;21.47;9.93;;;;;;;6.88;100.00;101934.30;714700;1199;115433;-75
2021/11/14 23:31:04;;;;;;;25.53;10.93;;;;;;;6.86;100.00;101955.22;714048;1199;113777;-74
2021/11/14 23:46:06;;;;;;;25.50;10.37;;;;;;;6.81;100.00;101946.79;713705;1177;113928;-74
